Time;durP1;ratioP1;P1;durP2;ratioP2;P2;SDS_P1;SDS_P2;PMS_P1;PMS_P2;Temp;Humidity;BMP_temperature;BMP_pressure;BME280_temperature;BME280_humidity;BME280_pressure;Samples;Min_cycle;Max_cycle;Signal;HPM_P1;HPM_P2
2022/12/19 00:00:15;;;;;;;28.35;14.45;;;1.50;99.90;;;;;;20683719;28;20096;-37
2022/12/19 00:10:16;;;;;;;22.58;13.20;;;1.60;99.90;;;;;;20691931;28;20046;-37
2022/12/19 00:20:17;;;;;;;24.38;12.32;;;1.60;99.90;;;;;;20680066;28;20046;-37
2022/12/19 00:30:18;;;;;;;28.45;15.20;;;1.80;99.90;;;;;;20684827;28;20054;-37
2022/12/19 00:40:20;;;;;;;23.83;12.93;;;2.00;99.90;;;;;;20682718;28;20061;-37
2022/12/19 00:50:21;;;;;;;23.13;14.15;;;2.00;99.90;;;;;;20682611;28;20201;-37
2022/12/19 01:00:22;;;;;;;25.13;15.15;;;2.00;99.90;;;;;;20708880;28;20078;-37
2022/12/19 01:10:23;;;;;;;33.83;14.32;;;2.10;99.90;;;;;;20711125;28;20076;-37
2022/12/19 01:20:25;;;;;;;25.15;16.02;;;2.30;99.90;;;;;;20701659;28;20054;-38
2022/12/19 01:30:26;;;;;;;33.30;15.98;;;2.40;99.90;;;;;;20699219;28;20068;-38
2022/12/19 01:40:27;;;;;;;32.75;16.83;;;2.50;99.90;;;;;;20702586;28;20042;-38
2022/12/19 01:50:36;;;;;;;34.03;18.85;;;2.60;99.90;;;;;;20706183;28;20154;-38
2022/12/19 02:00:40;;;;;;;29.80;14.93;;;2.70;99.90;;;;;;20700953;28;20046;-38
2022/12/19 02:10:41;;;;;;;26.63;16.20;;;2.90;99.90;;;;;;20697301;28;20056;-38
2022/12/19 02:21:04;;;;;;;29.92;16.35;;;2.90;99.90;;;;;;20683109;28;20045;-38
2022/12/19 02:31:37;;;;;;;41.40;15.98;;;3.10;99.90;;;;;;20690460;28;20073;-38
2022/12/19 02:41:45;;;;;;;32.67;13.25;;;3.30;99.90;;;;;;20631806;28;20045;-38
2022/12/19 02:51:46;;;;;;;25.52;14.43;;;3.60;99.90;;;;;;20628541;28;20556;-38
2022/12/19 03:02:04;;;;;;;16.27;11.05;;;3.80;99.90;;;;;;20626230;28;20053;-38
2022/12/19 03:12:15;;;;;;;25.48;13.65;;;3.90;99.90;;;;;;20624995;28;20246;-38
2022/12/19 03:22:16;;;;;;;15.60;9.07;;;4.10;99.90;;;;;;20623914;28;20109;-38
2022/12/19 03:32:21;;;;;;;19.20;9.80;;;4.20;99.90;;;;;;20625088;28;20038;-38
2022/12/19 03:53:38;;;;;;;10.88;7.15;;;4.50;99.90;;;;;;20544347;28;20893;-37
2022/12/19 04:03:39;;;;;;;14.68;7.22;;;4.60;99.90;;;;;;20685863;28;20034;-37
2022/12/19 04:13:47;;;;;;;13.55;7.80;;;4.60;99.90;;;;;;20692902;28;20104;-37
2022/12/19 04:23:55;;;;;;;14.73;6.80;;;4.70;99.90;;;;;;20687671;28;20441;-38
2022/12/19 04:33:57;;;;;;;12.55;6.75;;;4.70;99.90;;;;;;20687014;28;20049;-38
2022/12/19 04:43:57;;;;;;;10.85;7.32;;;4.80;99.90;;;;;;20688789;28;20058;-38
2022/12/19 04:53:58;;;;;;;10.40;5.93;;;5.00;99.90;;;;;;20686304;28;20495;-38
2022/12/19 05:03:59;;;;;;;10.18;5.25;;;5.10;99.90;;;;;;20683717;28;20038;-38
2022/12/19 05:14:01;;;;;;;10.48;5.43;;;5.20;99.90;;;;;;20685627;28;20057;-38
2022/12/19 05:24:02;;;;;;;8.25;5.22;;;5.30;99.90;;;;;;20675649;28;20049;-38
2022/12/19 05:34:03;;;;;;;8.18;4.72;;;5.40;99.90;;;;;;20677981;28;20445;-38
2022/12/19 05:44:04;;;;;;;9.68;5.18;;;5.50;99.90;;;;;;20694631;28;21243;-38
2022/12/19 05:54:05;;;;;;;12.55;6.45;;;5.70;99.90;;;;;;20699804;28;20046;-38
2022/12/19 06:04:06;;;;;;;9.93;6.80;;;5.80;99.90;;;;;;20691860;28;20045;-38
2022/12/19 06:14:07;;;;;;;9.80;5.25;;;6.00;99.90;;;;;;20697996;28;20046;-38
2022/12/19 06:24:08;;;;;;;8.18;4.80;;;6.30;99.90;;;;;;20689529;28;20551;-38
2022/12/19 06:34:10;;;;;;;11.90;6.88;;;6.40;99.90;;;;;;20691844;28;20497;-38
2022/12/19 06:44:12;;;;;;;8.57;4.57;;;6.70;99.90;;;;;;20694528;28;20046;-38
2022/12/19 06:54:13;;;;;;;12.55;6.93;;;6.80;99.90;;;;;;20691325;28;20108;-38
2022/12/19 07:04:20;;;;;;;11.25;7.18;;;6.90;99.90;;;;;;20690991;28;20037;-38
2022/12/19 07:14:22;;;;;;;9.90;5.50;;;7.00;99.90;;;;;;20693466;28;20232;-39
2022/12/19 07:24:23;;;;;;;10.40;5.25;;;7.10;99.90;;;;;;20684662;28;20436;-38
2022/12/19 07:34:24;;;;;;;10.82;5.75;;;7.10;99.90;;;;;;20665385;28;20082;-39
2022/12/19 07:44:25;;;;;;;13.57;5.93;;;7.10;99.90;;;;;;20648981;28;20045;-38
2022/12/19 07:54:26;;;;;;;7.10;4.13;;;7.20;99.90;;;;;;20672698;28;20085;-38
2022/12/19 08:04:27;;;;;;;5.47;3.53;;;7.20;99.90;;;;;;20660952;28;20100;-38
2022/12/19 08:14:28;;;;;;;7.28;4.22;;;7.30;99.90;;;;;;20638504;28;20066;-39
2022/12/19 08:24:29;;;;;;;11.40;5.82;;;7.40;99.90;;;;;;20648728;28;20069;-38
2022/12/19 08:34:31;;;;;;;9.93;4.22;;;7.50;99.90;;;;;;20645675;28;20502;-38
2022/12/19 08:44:32;;;;;;;9.95;4.40;;;7.60;99.90;;;;;;20650203;28;20077;-39
2022/12/19 08:54:33;;;;;;;8.80;3.72;;;7.60;99.90;;;;;;20652083;28;20137;-39
2022/12/19 09:04:35;;;;;;;8.80;4.65;;;7.70;99.90;;;;;;20584583;28;20075;-39
2022/12/19 09:14:36;;;;;;;9.65;4.93;;;7.70;99.90;;;;;;20592693;28;20041;-39
2022/12/19 09:24:37;;;;;;;6.18;3.92;;;7.70;99.90;;;;;;20671184;28;20244;-38
2022/12/19 09:34:38;;;;;;;7.20;3.28;;;7.80;99.90;;;;;;20628813;28;20149;-39
2022/12/19 09:45:03;;;;;;;6.80;3.45;;;7.80;99.90;;;;;;20662521;28;20162;-39
2022/12/19 09:55:18;;;;;;;4.82;2.70;;;7.80;99.90;;;;;;20647012;28;21443;-39
2022/12/19 10:05:35;;;;;;;5.65;2.53;;;7.80;99.90;;;;;;20639125;28;20589;-38
2022/12/19 10:15:49;;;;;;;7.97;3.75;;;7.90;99.90;;;;;;20654304;28;20188;-39
2022/12/19 10:26:09;;;;;;;7.88;3.75;;;8.00;99.90;;;;;;20657433;28;20069;-39
2022/12/19 10:36:11;;;;;;;3.25;1.77;;;8.20;99.90;;;;;;20648570;28;20786;-39
2022/12/19 10:46:33;;;;;;;3.67;2.03;;;8.30;99.90;;;;;;20646428;28;20180;-38
2022/12/19 10:56:34;;;;;;;4.43;2.40;;;8.30;99.90;;;;;;20655906;28;20065;-39
2022/12/19 11:06:48;;;;;;;4.03;2.03;;;8.40;99.90;;;;;;20652330;28;22159;-39
2022/12/19 11:16:49;;;;;;;3.90;2.03;;;8.40;99.90;;;;;;20687675;28;20041;-39
2022/12/19 11:26:51;;;;;;;3.50;1.85;;;8.50;99.90;;;;;;20694664;28;20087;-39
2022/12/19 11:37:16;;;;;;;3.63;2.35;;;8.60;99.90;;;;;;20697136;28;20460;-39
2022/12/19 11:47:48;;;;;;;3.63;1.67;;;8.70;99.90;;;;;;20665054;28;20879;-39
2022/12/19 11:57:49;;;;;;;6.25;2.33;;;8.70;99.90;;;;;;20660920;28;20133;-39
2022/12/19 12:08:12;;;;;;;5.30;2.75;;;8.80;99.90;;;;;;20656186;28;20596;-39
2022/12/19 12:18:24;;;;;;;4.97;1.67;;;8.80;99.90;;;;;;20650345;28;20855;-39
2022/12/19 12:28:56;;;;;;;3.70;2.13;;;8.90;99.90;;;;;;20656779;28;20123;-39
2022/12/19 12:39:24;;;;;;;2.75;1.25;;;8.90;99.90;;;;;;20655827;28;20047;-39
2022/12/19 12:49:36;;;;;;;3.60;0.70;;;9.00;99.90;;;;;;20670146;28;20798;-39
2022/12/19 12:59:37;;;;;;;4.32;1.85;;;9.10;99.90;;;;;;20654783;28;20076;-40
2022/12/19 13:09:40;;;;;;;3.92;1.60;;;9.30;99.90;;;;;;20657026;28;20066;-39
2022/12/19 13:19:53;;;;;;;3.88;1.15;;;9.40;99.90;;;;;;20659949;28;20496;-39
2022/12/19 13:30:00;;;;;;;3.88;2.08;;;9.40;99.90;;;;;;20669241;28;20454;-40
2022/12/19 13:40:24;;;;;;;4.03;1.83;;;9.40;99.90;;;;;;20638380;28;20232;-40
2022/12/19 13:50:40;;;;;;;6.55;1.75;;;9.50;99.90;;;;;;20610044;28;20711;-40
2022/12/19 14:00:41;;;;;;;2.80;1.13;;;9.50;99.90;;;;;;20623986;28;20237;-39
2022/12/19 14:10:46;;;;;;;2.97;1.63;;;9.40;99.90;;;;;;20609022;28;20027;-40
2022/12/19 14:20:48;;;;;;;3.42;1.90;;;9.50;99.90;;;;;;20612752;28;20147;-40
2022/12/19 14:30:59;;;;;;;4.00;1.88;;;9.50;99.90;;;;;;20612702;28;20371;-40
2022/12/19 14:41:01;;;;;;;3.38;1.08;;;9.60;99.90;;;;;;20672144;28;20873;-40
2022/12/19 14:51:08;;;;;;;3.70;1.52;;;9.70;99.90;;;;;;20656752;28;20076;-40
2022/12/19 15:01:24;;;;;;;5.13;2.77;;;9.70;99.90;;;;;;20696500;28;21104;-39
2022/12/19 15:21:48;;;;;;;4.43;2.00;;;9.40;99.90;;;;;;20694324;28;20042;-39
2022/12/19 15:31:49;;;;;;;3.00;1.50;;;9.30;99.90;;;;;;20690188;28;20046;-39
2022/12/19 15:41:53;;;;;;;2.65;0.90;;;9.30;99.90;;;;;;20674388;28;20050;-39
2022/12/19 15:51:54;;;;;;;4.38;1.58;;;9.40;99.90;;;;;;20669130;28;20097;-39
2022/12/19 16:01:56;;;;;;;6.00;1.42;;;9.50;99.90;;;;;;20653119;28;20348;-39
2022/12/19 16:11:57;;;;;;;3.55;1.08;;;9.50;99.90;;;;;;20692151;28;20046;-39
2022/12/19 16:21:59;;;;;;;3.20;0.93;;;9.40;99.90;;;;;;20689741;28;20050;-39
2022/12/19 16:32:00;;;;;;;1.88;0.70;;;9.40;99.90;;;;;;20690039;28;20353;-40
2022/12/19 16:42:03;;;;;;;2.35;0.98;;;9.50;99.90;;;;;;20687627;28;20444;-39
2022/12/19 16:52:05;;;;;;;3.13;1.13;;;9.60;99.90;;;;;;20691985;28;20277;-39
2022/12/19 17:02:41;;;;;;;7.45;1.50;;;9.70;99.90;;;;;;20688853;28;20042;-40
2022/12/19 17:12:44;;;;;;;3.90;1.27;;;9.70;99.90;;;;;;20689722;28;20045;-40
2022/12/19 17:22:46;;;;;;;3.53;1.30;;;9.70;99.90;;;;;;20694838;28;20053;-40
2022/12/19 17:32:49;;;;;;;1.83;0.75;;;9.70;99.90;;;;;;20669240;28;20057;-40
2022/12/19 17:42:51;;;;;;;4.82;2.00;;;9.70;99.90;;;;;;20711505;28;20089;-40
2022/12/19 17:52:54;;;;;;;4.22;1.70;;;9.60;99.90;;;;;;20705528;28;20084;-39
2022/12/19 18:02:55;;;;;;;2.15;1.58;;;9.50;99.90;;;;;;20703088;28;20038;-40
2022/12/19 18:12:57;;;;;;;3.60;1.58;;;9.50;99.90;;;;;;20660741;28;20141;-39
2022/12/19 18:22:59;;;;;;;2.78;1.38;;;9.50;99.90;;;;;;20628251;28;20110;-40
2022/12/19 18:33:01;;;;;;;2.97;1.70;;;9.40;99.90;;;;;;20645418;28;20144;-40
2022/12/19 18:43:03;;;;;;;4.65;2.05;;;9.50;99.90;;;;;;20662454;28;21645;-40
2022/12/19 18:53:13;;;;;;;4.68;1.88;;;9.40;99.90;;;;;;20663521;28;20324;-40
2022/12/19 19:03:17;;;;;;;3.65;2.10;;;9.30;99.90;;;;;;20667307;28;20108;-40
2022/12/19 19:13:19;;;;;;;2.42;1.40;;;9.40;99.90;;;;;;20680699;28;20041;-40
2022/12/19 19:23:22;;;;;;;4.60;1.65;;;9.60;99.90;;;;;;20676246;28;20452;-40
2022/12/19 19:33:32;;;;;;;3.35;1.63;;;9.70;99.90;;;;;;20671261;28;21235;-40
2022/12/19 19:43:33;;;;;;;2.95;1.42;;;9.70;99.90;;;;;;20606258;28;20573;-40
2022/12/19 19:53:35;;;;;;;5.68;2.53;;;9.60;99.90;;;;;;20608741;28;20100;-40
2022/12/19 20:03:38;;;;;;;4.28;1.02;;;9.80;99.90;;;;;;20589930;28;20908;-40
2022/12/19 20:13:39;;;;;;;6.55;2.90;;;9.80;99.90;;;;;;20609717;28;20043;-40
2022/12/19 20:23:42;;;;;;;17.60;2.65;;;9.70;99.90;;;;;;20590146;28;20086;-40
2022/12/19 20:33:44;;;;;;;2.72;1.10;;;9.70;99.90;;;;;;20590924;28;20091;-40
2022/12/19 20:43:47;;;;;;;2.85;1.50;;;9.70;99.90;;;;;;20662458;28;20038;-40
2022/12/19 20:53:52;;;;;;;3.08;1.60;;;9.60;99.90;;;;;;20657351;28;20413;-40
2022/12/19 21:03:53;;;;;;;3.63;1.73;;;9.60;99.90;;;;;;20664961;28;20139;-40
2022/12/19 21:13:54;;;;;;;3.85;1.48;;;9.60;99.90;;;;;;20669547;28;20069;-40
2022/12/19 21:23:55;;;;;;;4.22;1.60;;;9.60;99.90;;;;;;20659026;28;20112;-40
2022/12/19 21:33:59;;;;;;;2.30;1.30;;;9.50;99.90;;;;;;20685763;28;20101;-40
2022/12/19 21:44:00;;;;;;;2.40;1.80;;;9.50;99.90;;;;;;20696722;28;20041;-40
2022/12/19 21:54:03;;;;;;;9.32;2.25;;;9.50;99.90;;;;;;20701597;28;20626;-40
2022/12/19 22:04:08;;;;;;;3.50;1.55;;;9.50;99.90;;;;;;20690983;28;20097;-40
2022/12/19 22:14:12;;;;;;;2.38;0.98;;;9.40;99.90;;;;;;20692766;28;20581;-39
2022/12/19 22:24:15;;;;;;;2.17;1.30;;;9.50;99.90;;;;;;20675330;28;20147;-40
2022/12/19 22:34:18;;;;;;;3.25;1.38;;;9.50;99.90;;;;;;20660206;28;20623;-40
2022/12/19 22:44:22;;;;;;;2.60;1.10;;;9.60;99.90;;;;;;20599682;28;20631;-41
2022/12/19 22:54:23;;;;;;;7.05;2.45;;;9.60;99.90;;;;;;20604259;28;20077;-40
2022/12/19 23:04:24;;;;;;;5.30;1.70;;;9.70;99.90;;;;;;20598473;28;20050;-40
2022/12/19 23:14:25;;;;;;;1.83;1.15;;;9.70;99.90;;;;;;20606798;28;20037;-40
2022/12/19 23:24:26;;;;;;;3.13;1.30;;;9.60;99.90;;;;;;20616898;28;20054;-40
2022/12/19 23:34:27;;;;;;;3.53;1.63;;;9.60;99.90;;;;;;20617648;28;20092;-40
2022/12/19 23:44:28;;;;;;;2.53;1.00;;;9.50;99.90;;;;;;20671768;28;20057;-40
2022/12/19 23:54:29;;;;;;;2.85;1.42;;;9.50;99.90;;;;;;20664348;28;20123;-40
